sensor_id;sensor_type;location;lat;lon;timestamp;pressure;altitude;pressure_sealevel;temperature;humidity
44441;BME280;30146;52.268;20.944;2023-07-28T00:01:35;99472.14;;;17.21;52.30
44441;BME280;30146;52.268;20.944;2023-07-28T00:04:07;99473.18;;;17.21;52.24
44441;BME280;30146;52.268;20.944;2023-07-28T00:06:40;99476.96;;;17.22;52.23
44441;BME280;30146;52.268;20.944;2023-07-28T00:09:11;99474.20;;;17.21;52.24
44441;BME280;30146;52.268;20.944;2023-07-28T00:11:42;99474.56;;;17.21;52.26
44441;BME280;30146;52.268;20.944;2023-07-28T00:14:13;99476.97;;;17.21;52.29
44441;BME280;30146;52.268;20.944;2023-07-28T00:16:43;99479.23;;;17.21;52.24
44441;BME280;30146;52.268;20.944;2023-07-28T00:19:14;99474.19;;;17.22;52.18
44441;BME280;30146;52.268;20.944;2023-07-28T00:21:45;99466.26;;;17.22;52.25
44441;BME280;30146;52.268;20.944;2023-07-28T00:24:16;99461.23;;;17.22;52.32
44441;BME280;30146;52.268;20.944;2023-07-28T00:26:47;99462.08;;;17.22;52.26
44441;BME280;30146;52.268;20.944;2023-07-28T00:29:19;99461.89;;;17.22;52.35
44441;BME280;30146;52.268;20.944;2023-07-28T00:31:50;99463.39;;;17.24;52.33
44441;BME280;30146;52.268;20.944;2023-07-28T00:34:20;99464.77;;;17.23;52.35
44441;BME280;30146;52.268;20.944;2023-07-28T00:36:53;99462.73;;;17.23;52.38
44441;BME280;30146;52.268;20.944;2023-07-28T00:39:24;99461.14;;;17.24;52.23
44441;BME280;30146;52.268;20.944;2023-07-28T00:41:56;99459.12;;;17.22;52.31
44441;BME280;30146;52.268;20.944;2023-07-28T00:44:26;99460.13;;;17.23;52.31
44441;BME280;30146;52.268;20.944;2023-07-28T00:46:58;99455.11;;;17.23;52.42
44441;BME280;30146;52.268;20.944;2023-07-28T00:49:29;99449.87;;;17.24;52.43
44441;BME280;30146;52.268;20.944;2023-07-28T00:52:00;99446.05;;;17.25;52.46
44441;BME280;30146;52.268;20.944;2023-07-28T00:54:31;99443.09;;;17.25;52.44
44441;BME280;30146;52.268;20.944;2023-07-28T00:57:04;99442.20;;;17.25;52.45
44441;BME280;30146;52.268;20.944;2023-07-28T00:59:37;99441.15;;;17.26;52.51
44441;BME280;30146;52.268;20.944;2023-07-28T01:02:08;99440.77;;;17.27;52.45
44441;BME280;30146;52.268;20.944;2023-07-28T01:04:39;99438.37;;;17.26;52.39
44441;BME280;30146;52.268;20.944;2023-07-28T01:07:13;99433.17;;;17.27;52.32
44441;BME280;30146;52.268;20.944;2023-07-28T01:09:52;99426.77;;;17.27;52.34
44441;BME280;30146;52.268;20.944;2023-07-28T01:12:26;99424.86;;;17.27;52.42
44441;BME280;30146;52.268;20.944;2023-07-28T01:14:57;99420.73;;;17.27;52.37
44441;BME280;30146;52.268;20.944;2023-07-28T01:17:28;99418.82;;;17.27;52.38
44441;BME280;30146;52.268;20.944;2023-07-28T01:20:00;99419.44;;;17.29;52.50
44441;BME280;30146;52.268;20.944;2023-07-28T01:23:00;99417.48;;;17.29;52.42
44441;BME280;30146;52.268;20.944;2023-07-28T01:25:43;99411.93;;;17.30;52.50
44441;BME280;30146;52.268;20.944;2023-07-28T01:28:18;99410.02;;;17.30;52.43
44441;BME280;30146;52.268;20.944;2023-07-28T01:30:50;99405.68;;;17.31;52.48
44441;BME280;30146;52.268;20.944;2023-07-28T01:33:21;99401.29;;;17.32;52.43
44441;BME280;30146;52.268;20.944;2023-07-28T01:35:52;99395.73;;;17.33;52.36
44441;BME280;30146;52.268;20.944;2023-07-28T01:38:23;99391.92;;;17.33;52.39
44441;BME280;30146;52.268;20.944;2023-07-28T01:40:54;99391.39;;;17.33;52.32
44441;BME280;30146;52.268;20.944;2023-07-28T01:43:25;99388.73;;;17.35;52.44
44441;BME280;30146;52.268;20.944;2023-07-28T01:45:56;99386.06;;;17.36;52.42
44441;BME280;30146;52.268;20.944;2023-07-28T01:48:27;99384.98;;;17.37;52.42
44441;BME280;30146;52.268;20.944;2023-07-28T01:50:58;99386.85;;;17.37;52.36
44441;BME280;30146;52.268;20.944;2023-07-28T01:53:28;99388.61;;;17.37;52.24
44441;BME280;30146;52.268;20.944;2023-07-28T01:55:59;99385.02;;;17.36;52.26
44441;BME280;30146;52.268;20.944;2023-07-28T01:58:31;99384.51;;;17.36;52.20
44441;BME280;30146;52.268;20.944;2023-07-28T02:01:02;99383.48;;;17.36;52.27
44441;BME280;30146;52.268;20.944;2023-07-28T02:03:33;99383.86;;;17.35;52.19
44441;BME280;30146;52.268;20.944;2023-07-28T02:06:04;99381.67;;;17.34;52.33
44441;BME280;30146;52.268;20.944;2023-07-28T02:08:34;99384.27;;;17.34;52.33
44441;BME280;30146;52.268;20.944;2023-07-28T02:11:05;99388.42;;;17.34;52.30
44441;BME280;30146;52.268;20.944;2023-07-28T02:13:36;99386.73;;;17.33;52.38
44441;BME280;30146;52.268;20.944;2023-07-28T02:16:07;99383.77;;;17.33;52.48
44441;BME280;30146;52.268;20.944;2023-07-28T02:18:38;99380.70;;;17.33;52.51
44441;BME280;30146;52.268;20.944;2023-07-28T02:21:10;99385.80;;;17.31;52.54
44441;BME280;30146;52.268;20.944;2023-07-28T02:23:41;99384.52;;;17.29;52.52
44441;BME280;30146;52.268;20.944;2023-07-28T02:26:12;99377.14;;;17.28;52.69
44441;BME280;30146;52.268;20.944;2023-07-28T02:28:43;99374.69;;;17.26;52.74
44441;BME280;30146;52.268;20.944;2023-07-28T02:31:15;99378.19;;;17.25;52.87
44441;BME280;30146;52.268;20.944;2023-07-28T02:33:47;99373.98;;;17.23;52.91
44441;BME280;30146;52.268;20.944;2023-07-28T02:36:18;99375.12;;;17.21;52.97
44441;BME280;30146;52.268;20.944;2023-07-28T02:38:49;99373.64;;;17.19;53.11
44441;BME280;30146;52.268;20.944;2023-07-28T02:41:19;99373.05;;;17.17;53.20
44441;BME280;30146;52.268;20.944;2023-07-28T02:43:50;99373.50;;;17.15;53.33
44441;BME280;30146;52.268;20.944;2023-07-28T02:46:22;99376.23;;;17.12;53.44
44441;BME280;30146;52.268;20.944;2023-07-28T02:48:54;99383.48;;;17.12;53.68
44441;BME280;30146;52.268;20.944;2023-07-28T02:51:25;99386.67;;;17.11;53.83
44441;BME280;30146;52.268;20.944;2023-07-28T02:53:56;99391.23;;;17.09;53.98
44441;BME280;30146;52.268;20.944;2023-07-28T02:56:27;99386.65;;;17.08;54.35
44441;BME280;30146;52.268;20.944;2023-07-28T02:58:58;99377.75;;;17.06;54.52
44441;BME280;30146;52.268;20.944;2023-07-28T03:01:30;99371.34;;;17.03;54.65
44441;BME280;30146;52.268;20.944;2023-07-28T03:04:03;99368.54;;;17.01;54.84
44441;BME280;30146;52.268;20.944;2023-07-28T03:06:46;99367.66;;;16.98;55.03
44441;BME280;30146;52.268;20.944;2023-07-28T03:09:18;99375.29;;;16.94;55.05
44441;BME280;30146;52.268;20.944;2023-07-28T03:12:01;99372.51;;;16.91;55.29
44441;BME280;30146;52.268;20.944;2023-07-28T03:14:32;99370.08;;;16.88;55.46
44441;BME280;30146;52.268;20.944;2023-07-28T03:17:03;99375.23;;;16.85;55.57
44441;BME280;30146;52.268;20.944;2023-07-28T03:19:34;99365.84;;;16.83;55.79
44441;BME280;30146;52.268;20.944;2023-07-28T03:22:05;99361.59;;;16.81;55.80
44441;BME280;30146;52.268;20.944;2023-07-28T03:24:36;99349.33;;;16.78;55.98
44441;BME280;30146;52.268;20.944;2023-07-28T03:27:07;99351.69;;;16.75;55.95
44441;BME280;30146;52.268;20.944;2023-07-28T03:29:41;99343.08;;;16.71;56.03
44441;BME280;30146;52.268;20.944;2023-07-28T03:32:12;99340.95;;;16.69;56.22
44441;BME280;30146;52.268;20.944;2023-07-28T03:34:42;99349.34;;;16.67;56.22
44441;BME280;30146;52.268;20.944;2023-07-28T03:37:14;99349.94;;;16.65;56.31
44441;BME280;30146;52.268;20.944;2023-07-28T03:39:45;99344.63;;;16.64;56.48
44441;BME280;30146;52.268;20.944;2023-07-28T03:42:19;99342.80;;;16.64;56.67
44441;BME280;30146;52.268;20.944;2023-07-28T03:44:49;99344.39;;;16.63;56.68
44441;BME280;30146;52.268;20.944;2023-07-28T03:47:20;99335.66;;;16.61;56.74
44441;BME280;30146;52.268;20.944;2023-07-28T03:49:51;99340.78;;;16.62;56.83
44441;BME280;30146;52.268;20.944;2023-07-28T03:52:22;99340.13;;;16.62;56.89
44441;BME280;30146;52.268;20.944;2023-07-28T03:54:53;99341.66;;;16.62;56.96
44441;BME280;30146;52.268;20.944;2023-07-28T03:57:24;99343.34;;;16.63;56.97
44441;BME280;30146;52.268;20.944;2023-07-28T03:59:55;99342.77;;;16.64;56.93
44441;BME280;30146;52.268;20.944;2023-07-28T04:02:25;99340.33;;;16.64;56.88
44441;BME280;30146;52.268;20.944;2023-07-28T04:04:58;99341.69;;;16.65;56.88
44441;BME280;30146;52.268;20.944;2023-07-28T04:07:30;99336.95;;;16.66;56.94
44441;BME280;30146;52.268;20.944;2023-07-28T04:10:02;99332.40;;;16.68;56.96
44441;BME280;30146;52.268;20.944;2023-07-28T04:12:33;99328.68;;;16.69;56.91
44441;BME280;30146;52.268;20.944;2023-07-28T04:15:05;99330.05;;;16.73;57.02
44441;BME280;30146;52.268;20.944;2023-07-28T04:17:37;99334.95;;;16.75;56.96
44441;BME280;30146;52.268;20.944;2023-07-28T04:20:12;99333.20;;;16.79;56.89
44441;BME280;30146;52.268;20.944;2023-07-28T04:22:43;99336.70;;;16.82;56.87
44441;BME280;30146;52.268;20.944;2023-07-28T04:25:14;99335.98;;;16.86;56.95
44441;BME280;30146;52.268;20.944;2023-07-28T04:27:47;99333.92;;;16.89;56.87
44441;BME280;30146;52.268;20.944;2023-07-28T04:30:22;99334.30;;;16.92;56.97
44441;BME280;30146;52.268;20.944;2023-07-28T04:32:53;99329.73;;;16.94;56.92
44441;BME280;30146;52.268;20.944;2023-07-28T04:35:26;99329.40;;;16.97;56.99
44441;BME280;30146;52.268;20.944;2023-07-28T04:38:13;99322.17;;;17.00;56.99
44441;BME280;30146;52.268;20.944;2023-07-28T04:40:50;99316.61;;;17.00;56.93
44441;BME280;30146;52.268;20.944;2023-07-28T04:43:25;99314.63;;;17.02;57.00
44441;BME280;30146;52.268;20.944;2023-07-28T04:45:57;99314.34;;;17.04;57.10
44441;BME280;30146;52.268;20.944;2023-07-28T04:48:28;99308.76;;;17.05;57.11
44441;BME280;30146;52.268;20.944;2023-07-28T04:51:00;99308.23;;;17.06;56.96
44441;BME280;30146;52.268;20.944;2023-07-28T04:53:57;99300.73;;;17.07;57.06
44441;BME280;30146;52.268;20.944;2023-07-28T04:56:32;99298.02;;;17.09;57.12
44441;BME280;30146;52.268;20.944;2023-07-28T04:59:04;99294.87;;;17.10;57.12
44441;BME280;30146;52.268;20.944;2023-07-28T05:01:35;99295.10;;;17.12;57.20
44441;BME280;30146;52.268;20.944;2023-07-28T05:04:08;99291.87;;;17.14;57.16
44441;BME280;30146;52.268;20.944;2023-07-28T05:06:39;99295.09;;;17.16;57.17
44441;BME280;30146;52.268;20.944;2023-07-28T05:09:11;99294.38;;;17.16;57.16
44441;BME280;30146;52.268;20.944;2023-07-28T05:11:42;99293.67;;;17.16;57.16
44441;BME280;30146;52.268;20.944;2023-07-28T05:14:16;99288.71;;;17.19;57.35
44441;BME280;30146;52.268;20.944;2023-07-28T05:16:48;99287.38;;;17.21;57.35
44441;BME280;30146;52.268;20.944;2023-07-28T05:19:22;99287.91;;;17.24;57.41
44441;BME280;30146;52.268;20.944;2023-07-28T05:22:12;99289.45;;;17.27;57.46
44441;BME280;30146;52.268;20.944;2023-07-28T05:24:49;99286.05;;;17.29;57.41
44441;BME280;30146;52.268;20.944;2023-07-28T05:27:25;99289.52;;;17.33;57.57
44441;BME280;30146;52.268;20.944;2023-07-28T05:29:56;99292.22;;;17.37;57.49
44441;BME280;30146;52.268;20.944;2023-07-28T05:32:27;99292.71;;;17.40;57.46
44441;BME280;30146;52.268;20.944;2023-07-28T05:35:18;99290.84;;;17.43;57.54
44441;BME280;30146;52.268;20.944;2023-07-28T05:37:51;99291.95;;;17.45;57.38
44441;BME280;30146;52.268;20.944;2023-07-28T05:40:24;99289.42;;;17.47;57.50
44441;BME280;30146;52.268;20.944;2023-07-28T05:42:55;99292.55;;;17.50;57.56
44441;BME280;30146;52.268;20.944;2023-07-28T05:45:26;99291.16;;;17.50;57.39
44441;BME280;30146;52.268;20.944;2023-07-28T05:47:57;99290.17;;;17.49;57.27
44441;BME280;30146;52.268;20.944;2023-07-28T05:50:28;99289.04;;;17.47;57.19
44441;BME280;30146;52.268;20.944;2023-07-28T05:52:59;99290.09;;;17.47;57.33
44441;BME280;30146;52.268;20.944;2023-07-28T05:55:30;99285.25;;;17.47;57.29
44441;BME280;30146;52.268;20.944;2023-07-28T05:58:01;99281.23;;;17.48;57.41
44441;BME280;30146;52.268;20.944;2023-07-28T06:00:33;99286.85;;;17.50;57.45
44441;BME280;30146;52.268;20.944;2023-07-28T06:03:09;99294.95;;;17.53;57.61
44441;BME280;30146;52.268;20.944;2023-07-28T06:05:58;99299.31;;;17.59;57.62
44441;BME280;30146;52.268;20.944;2023-07-28T06:08:29;99291.96;;;17.64;57.70
44441;BME280;30146;52.268;20.944;2023-07-28T06:10:59;99293.41;;;17.69;57.65
44441;BME280;30146;52.268;20.944;2023-07-28T06:13:32;99294.17;;;17.74;57.54
44441;BME280;30146;52.268;20.944;2023-07-28T06:16:03;99298.42;;;17.78;57.62
44441;BME280;30146;52.268;20.944;2023-07-28T06:18:38;99297.16;;;17.82;57.56
44441;BME280;30146;52.268;20.944;2023-07-28T06:21:14;99290.91;;;17.86;57.54
44441;BME280;30146;52.268;20.944;2023-07-28T06:23:45;99289.17;;;17.89;57.52
44441;BME280;30146;52.268;20.944;2023-07-28T06:26:16;99288.74;;;17.94;57.45
44441;BME280;30146;52.268;20.944;2023-07-28T06:28:49;99288.61;;;17.96;57.33
44441;BME280;30146;52.268;20.944;2023-07-28T06:31:22;99293.12;;;17.99;57.27
44441;BME280;30146;52.268;20.944;2023-07-28T06:33:53;99289.88;;;18.01;57.26
44441;BME280;30146;52.268;20.944;2023-07-28T06:36:25;99293.61;;;18.06;57.25
44441;BME280;30146;52.268;20.944;2023-07-28T06:39:00;99293.61;;;18.08;57.08
44441;BME280;30146;52.268;20.944;2023-07-28T06:41:32;99294.30;;;18.12;57.16
44441;BME280;30146;52.268;20.944;2023-07-28T06:44:07;99295.08;;;18.16;57.13
44441;BME280;30146;52.268;20.944;2023-07-28T06:46:39;99295.50;;;18.21;57.02
44441;BME280;30146;52.268;20.944;2023-07-28T06:49:12;99289.70;;;18.25;56.97
44441;BME280;30146;52.268;20.944;2023-07-28T06:51:46;99281.55;;;18.29;56.70
44441;BME280;30146;52.268;20.944;2023-07-28T06:54:20;99282.25;;;18.32;56.67
44441;BME280;30146;52.268;20.944;2023-07-28T06:56:51;99276.39;;;18.34;56.70
44441;BME280;30146;52.268;20.944;2023-07-28T06:59:22;99275.39;;;18.37;56.82
44441;BME280;30146;52.268;20.944;2023-07-28T07:01:57;99270.14;;;18.41;56.74
44441;BME280;30146;52.268;20.944;2023-07-28T07:04:29;99271.17;;;18.43;56.73
44441;BME280;30146;52.268;20.944;2023-07-28T07:07:01;99278.50;;;18.45;56.72
44441;BME280;30146;52.268;20.944;2023-07-28T07:09:32;99282.98;;;18.46;56.53
44441;BME280;30146;52.268;20.944;2023-07-28T07:12:05;99286.16;;;18.42;56.53
44441;BME280;30146;52.268;20.944;2023-07-28T07:14:36;99289.08;;;18.36;56.80
44441;BME280;30146;52.268;20.944;2023-07-28T07:17:08;99294.14;;;18.30;57.04
44441;BME280;30146;52.268;20.944;2023-07-28T07:19:45;99303.17;;;18.20;57.42
44441;BME280;30146;52.268;20.944;2023-07-28T07:22:17;99309.80;;;18.10;58.01
44441;BME280;30146;52.268;20.944;2023-07-28T07:24:47;99305.08;;;17.99;58.37
44441;BME280;30146;52.268;20.944;2023-07-28T07:27:18;99310.09;;;17.86;58.44
44441;BME280;30146;52.268;20.944;2023-07-28T07:29:49;99308.73;;;17.73;58.83
44441;BME280;30146;52.268;20.944;2023-07-28T07:32:23;99301.94;;;17.61;59.26
44441;BME280;30146;52.268;20.944;2023-07-28T07:34:54;99299.98;;;17.53;59.76
44441;BME280;30146;52.268;20.944;2023-07-28T07:37:29;99297.03;;;17.43;60.05
44441;BME280;30146;52.268;20.944;2023-07-28T07:40:05;99292.05;;;17.33;60.30
44441;BME280;30146;52.268;20.944;2023-07-28T07:42:45;99289.94;;;17.28;60.87
44441;BME280;30146;52.268;20.944;2023-07-28T07:45:16;99294.94;;;17.25;61.57
44441;BME280;30146;52.268;20.944;2023-07-28T07:47:47;99297.16;;;17.22;61.89
44441;BME280;30146;52.268;20.944;2023-07-28T07:50:31;99293.59;;;17.18;62.11
44441;BME280;30146;52.268;20.944;2023-07-28T07:53:02;99295.58;;;17.12;62.39
44441;BME280;30146;52.268;20.944;2023-07-28T07:55:35;99288.43;;;17.10;62.68
44441;BME280;30146;52.268;20.944;2023-07-28T07:58:06;99290.64;;;17.08;62.80
44441;BME280;30146;52.268;20.944;2023-07-28T08:00:39;99286.80;;;17.06;62.94
44441;BME280;30146;52.268;20.944;2023-07-28T08:03:10;99290.52;;;17.04;63.21
44441;BME280;30146;52.268;20.944;2023-07-28T08:05:41;99294.34;;;17.00;63.27
44441;BME280;30146;52.268;20.944;2023-07-28T08:08:19;99299.31;;;16.98;63.56
44441;BME280;30146;52.268;20.944;2023-07-28T08:10:51;99299.94;;;16.92;63.65
44441;BME280;30146;52.268;20.944;2023-07-28T08:13:22;99298.65;;;16.87;63.72
44441;BME280;30146;52.268;20.944;2023-07-28T08:15:54;99294.73;;;16.83;63.95
44441;BME280;30146;52.268;20.944;2023-07-28T08:18:26;99291.98;;;16.79;64.27
44441;BME280;30146;52.268;20.944;2023-07-28T08:20:58;99293.36;;;16.75;64.46
44441;BME280;30146;52.268;20.944;2023-07-28T08:23:30;99292.39;;;16.74;64.66
44441;BME280;30146;52.268;20.944;2023-07-28T08:26:01;99294.05;;;16.75;65.07
44441;BME280;30146;52.268;20.944;2023-07-28T08:28:33;99289.67;;;16.76;65.14
44441;BME280;30146;52.268;20.944;2023-07-28T08:31:13;99289.70;;;16.83;65.51
44441;BME280;30146;52.268;20.944;2023-07-28T08:33:47;99283.56;;;16.92;65.87
44441;BME280;30146;52.268;20.944;2023-07-28T08:36:18;99284.98;;;17.04;66.13
44441;BME280;30146;52.268;20.944;2023-07-28T08:38:49;99285.58;;;17.16;66.20
44441;BME280;30146;52.268;20.944;2023-07-28T08:41:20;99286.47;;;17.28;66.35
44441;BME280;30146;52.268;20.944;2023-07-28T08:43:52;99284.41;;;17.38;66.22
44441;BME280;30146;52.268;20.944;2023-07-28T08:46:25;99287.27;;;17.45;66.29
44441;BME280;30146;52.268;20.944;2023-07-28T08:49:04;99289.73;;;17.51;66.27
44441;BME280;30146;52.268;20.944;2023-07-28T08:51:35;99289.52;;;17.51;66.06
44441;BME280;30146;52.268;20.944;2023-07-28T08:54:13;99285.33;;;17.49;65.95
44441;BME280;30146;52.268;20.944;2023-07-28T08:56:46;99279.36;;;17.47;65.88
44441;BME280;30146;52.268;20.944;2023-07-28T08:59:23;99279.73;;;17.44;65.98
44441;BME280;30146;52.268;20.944;2023-07-28T09:01:58;99275.31;;;17.43;66.28
44441;BME280;30146;52.268;20.944;2023-07-28T09:04:30;99274.81;;;17.42;66.28
44441;BME280;30146;52.268;20.944;2023-07-28T09:07:05;99267.81;;;17.41;66.41
44441;BME280;30146;52.268;20.944;2023-07-28T09:09:45;99269.52;;;17.41;66.54
44441;BME280;30146;52.268;20.944;2023-07-28T09:12:16;99270.84;;;17.39;66.47
44441;BME280;30146;52.268;20.944;2023-07-28T09:14:48;99271.38;;;17.36;66.55
44441;BME280;30146;52.268;20.944;2023-07-28T09:17:26;99277.50;;;17.35;66.68
44441;BME280;30146;52.268;20.944;2023-07-28T09:19:58;99273.64;;;17.32;66.71
44441;BME280;30146;52.268;20.944;2023-07-28T09:22:30;99273.29;;;17.32;66.97
44441;BME280;30146;52.268;20.944;2023-07-28T09:25:13;99271.88;;;17.33;67.13
44441;BME280;30146;52.268;20.944;2023-07-28T09:27:54;99268.22;;;17.34;67.18
44441;BME280;30146;52.268;20.944;2023-07-28T09:30:42;99269.02;;;17.35;67.29
44441;BME280;30146;52.268;20.944;2023-07-28T09:33:14;99261.41;;;17.38;67.48
44441;BME280;30146;52.268;20.944;2023-07-28T09:36:08;99265.79;;;17.43;67.69
44441;BME280;30146;52.268;20.944;2023-07-28T09:38:41;99263.11;;;17.47;67.97
44441;BME280;30146;52.268;20.944;2023-07-28T09:41:12;99258.70;;;17.49;67.82
44441;BME280;30146;52.268;20.944;2023-07-28T09:43:43;99249.51;;;17.53;67.85
44441;BME280;30146;52.268;20.944;2023-07-28T09:46:16;99248.30;;;17.60;67.92
44441;BME280;30146;52.268;20.944;2023-07-28T09:48:54;99251.67;;;17.67;68.07
44441;BME280;30146;52.268;20.944;2023-07-28T09:51:30;99244.74;;;17.74;68.17
44441;BME280;30146;52.268;20.944;2023-07-28T09:54:10;99244.24;;;17.79;68.25
44441;BME280;30146;52.268;20.944;2023-07-28T09:56:42;99250.41;;;17.83;68.27
44441;BME280;30146;52.268;20.944;2023-07-28T09:59:18;99245.27;;;17.86;68.25
44441;BME280;30146;52.268;20.944;2023-07-28T10:01:51;99244.27;;;17.88;68.15
44441;BME280;30146;52.268;20.944;2023-07-28T10:04:22;99236.06;;;17.90;68.07
44441;BME280;30146;52.268;20.944;2023-07-28T10:06:54;99243.21;;;17.92;68.16
44441;BME280;30146;52.268;20.944;2023-07-28T10:09:27;99240.94;;;17.92;68.14
44441;BME280;30146;52.268;20.944;2023-07-28T10:12:01;99241.30;;;17.92;68.30
44441;BME280;30146;52.268;20.944;2023-07-28T10:14:36;99237.28;;;17.93;68.36
44441;BME280;30146;52.268;20.944;2023-07-28T10:17:16;99242.60;;;17.94;68.32
44441;BME280;30146;52.268;20.944;2023-07-28T10:19:47;99237.19;;;17.95;68.34
44441;BME280;30146;52.268;20.944;2023-07-28T10:22:19;99232.55;;;17.97;68.41
44441;BME280;30146;52.268;20.944;2023-07-28T10:24:52;99236.38;;;18.00;68.51
44441;BME280;30146;52.268;20.944;2023-07-28T10:27:34;99236.20;;;18.03;68.57
44441;BME280;30146;52.268;20.944;2023-07-28T10:30:12;99239.55;;;18.04;68.54
44441;BME280;30146;52.268;20.944;2023-07-28T10:32:49;99237.38;;;18.06;68.70
44441;BME280;30146;52.268;20.944;2023-07-28T10:35:26;99234.57;;;18.07;68.64
44441;BME280;30146;52.268;20.944;2023-07-28T10:38:30;99232.94;;;18.08;68.61
44441;BME280;30146;52.268;20.944;2023-07-28T10:41:13;99229.17;;;18.11;68.64
44441;BME280;30146;52.268;20.944;2023-07-28T10:43:45;99227.27;;;18.14;68.62
44441;BME280;30146;52.268;20.944;2023-07-28T10:46:20;99225.91;;;18.16;68.65
44441;BME280;30146;52.268;20.944;2023-07-28T10:49:05;99221.96;;;18.18;68.66
44441;BME280;30146;52.268;20.944;2023-07-28T10:51:38;99217.02;;;18.20;68.52
44441;BME280;30146;52.268;20.944;2023-07-28T10:54:10;99214.35;;;18.21;68.58
44441;BME280;30146;52.268;20.944;2023-07-28T10:56:45;99211.30;;;18.26;68.63
44441;BME280;30146;52.268;20.944;2023-07-28T10:59:17;99211.66;;;18.32;68.75
44441;BME280;30146;52.268;20.944;2023-07-28T11:02:15;99212.65;;;18.39;68.79
44441;BME280;30146;52.268;20.944;2023-07-28T11:04:49;99213.01;;;18.44;68.75
44441;BME280;30146;52.268;20.944;2023-07-28T11:07:21;99220.80;;;18.50;68.90
44441;BME280;30146;52.268;20.944;2023-07-28T11:09:53;99221.27;;;18.54;68.78
44441;BME280;30146;52.268;20.944;2023-07-28T11:12:24;99213.14;;;18.56;68.62
44441;BME280;30146;52.268;20.944;2023-07-28T11:14:55;99215.30;;;18.58;68.65
44441;BME280;30146;52.268;20.944;2023-07-28T11:17:28;99213.76;;;18.60;68.57
44441;BME280;30146;52.268;20.944;2023-07-28T11:20:00;99208.02;;;18.64;68.57
44441;BME280;30146;52.268;20.944;2023-07-28T11:22:31;99205.09;;;18.66;68.30
44441;BME280;30146;52.268;20.944;2023-07-28T11:25:03;99203.27;;;18.71;68.34
44441;BME280;30146;52.268;20.944;2023-07-28T11:27:40;99205.23;;;18.78;68.34
44441;BME280;30146;52.268;20.944;2023-07-28T11:30:12;99206.77;;;18.88;68.57
44441;BME280;30146;52.268;20.944;2023-07-28T11:32:45;99204.44;;;18.97;68.40
44441;BME280;30146;52.268;20.944;2023-07-28T11:35:21;99207.11;;;19.07;68.39
44441;BME280;30146;52.268;20.944;2023-07-28T11:37:54;99201.34;;;19.19;68.22
44441;BME280;30146;52.268;20.944;2023-07-28T11:40:27;99195.77;;;19.30;68.12
44441;BME280;30146;52.268;20.944;2023-07-28T11:42:58;99190.17;;;19.42;68.18
44441;BME280;30146;52.268;20.944;2023-07-28T11:45:32;99190.05;;;19.55;67.98
44441;BME280;30146;52.268;20.944;2023-07-28T11:48:06;99187.42;;;19.66;67.79
44441;BME280;30146;52.268;20.944;2023-07-28T11:50:39;99188.44;;;19.74;67.60
44441;BME280;30146;52.268;20.944;2023-07-28T11:53:11;99189.16;;;19.82;67.54
44441;BME280;30146;52.268;20.944;2023-07-28T11:55:42;99187.58;;;19.91;67.32
44441;BME280;30146;52.268;20.944;2023-07-28T11:58:13;99177.59;;;20.02;67.46
44441;BME280;30146;52.268;20.944;2023-07-28T12:00:44;99179.27;;;20.18;67.70
44441;BME280;30146;52.268;20.944;2023-07-28T12:03:17;99177.02;;;20.34;67.45
44441;BME280;30146;52.268;20.944;2023-07-28T12:06:05;99179.15;;;20.48;67.30
44441;BME280;30146;52.268;20.944;2023-07-28T12:08:42;99181.19;;;20.65;67.23
44441;BME280;30146;52.268;20.944;2023-07-28T12:11:18;99182.60;;;20.79;66.84
44441;BME280;30146;52.268;20.944;2023-07-28T12:13:51;99181.41;;;20.93;66.53
44441;BME280;30146;52.268;20.944;2023-07-28T12:16:47;99180.92;;;21.05;66.15
44441;BME280;30146;52.268;20.944;2023-07-28T12:19:21;99183.59;;;21.19;65.99
44441;BME280;30146;52.268;20.944;2023-07-28T12:21:52;99177.39;;;21.30;65.64
44441;BME280;30146;52.268;20.944;2023-07-28T12:24:24;99178.69;;;21.41;65.16
44441;BME280;30146;52.268;20.944;2023-07-28T12:27:03;99182.29;;;21.52;64.70
44441;BME280;30146;52.268;20.944;2023-07-28T12:29:41;99174.55;;;21.60;64.43
44441;BME280;30146;52.268;20.944;2023-07-28T12:32:30;99171.82;;;21.71;64.20
44441;BME280;30146;52.268;20.944;2023-07-28T12:35:07;99177.95;;;21.80;63.82
44441;BME280;30146;52.268;20.944;2023-07-28T12:37:42;99175.91;;;21.86;63.17
44441;BME280;30146;52.268;20.944;2023-07-28T12:40:19;99180.82;;;21.90;62.60
44441;BME280;30146;52.268;20.944;2023-07-28T12:42:56;99188.80;;;21.98;62.36
44441;BME280;30146;52.268;20.944;2023-07-28T12:46:15;99191.58;;;22.09;62.39
44441;BME280;30146;52.268;20.944;2023-07-28T12:48:56;99198.76;;;22.20;62.14
44441;BME280;30146;52.268;20.944;2023-07-28T12:55:36;99207.36;;;22.24;61.41
44441;BME280;30146;52.268;20.944;2023-07-28T12:58:29;99210.64;;;22.22;61.46
44441;BME280;30146;52.268;20.944;2023-07-28T13:01:04;99206.98;;;22.22;61.55
44441;BME280;30146;52.268;20.944;2023-07-28T13:03:35;99212.20;;;22.22;61.51
44441;BME280;30146;52.268;20.944;2023-07-28T13:06:10;99217.34;;;22.21;61.21
44441;BME280;30146;52.268;20.944;2023-07-28T13:08:41;99219.23;;;22.17;60.91
44441;BME280;30146;52.268;20.944;2023-07-28T13:11:15;99226.33;;;22.10;60.69
44441;BME280;30146;52.268;20.944;2023-07-28T13:13:47;99226.98;;;22.04;60.88
44441;BME280;30146;52.268;20.944;2023-07-28T13:16:22;99224.61;;;21.98;60.98
44441;BME280;30146;52.268;20.944;2023-07-28T13:18:53;99219.57;;;21.94;60.84
44441;BME280;30146;52.268;20.944;2023-07-28T13:21:25;99222.70;;;21.84;60.78
44441;BME280;30146;52.268;20.944;2023-07-28T13:23:56;99229.56;;;21.74;60.81
44441;BME280;30146;52.268;20.944;2023-07-28T13:26:27;99227.92;;;21.63;61.08
44441;BME280;30146;52.268;20.944;2023-07-28T13:29:00;99227.16;;;21.54;61.42